Time;durP1;ratioP1;P1;durP2;ratioP2;P2;SDS_P1;SDS_P2;PMS_P1;PMS_P2;Temp;Humidity;BMP_temperature;BMP_pressure;BME280_temperature;BME280_humidity;BME280_pressure;Samples;Min_cycle;Max_cycle;Signal;HPM_P1;HPM_P2
2022/06/11 00:01:15;;;;;;;;;;;11.50;99.90;;;;;;4967858;28;20452;-70
2022/06/11 00:03:43;;;;;;;3.85;2.05;;;11.80;99.90;;;;;;4965897;28;20275;-71
2022/06/11 00:06:11;;;;;;;2.90;1.92;;;12.10;99.90;;;;;;4961544;28;20074;-63
2022/06/11 00:08:38;;;;;;;7.00;3.40;;;12.20;99.90;;;;;;4960883;28;20030;-71
2022/06/11 00:11:07;;;;;;;10.02;5.10;;;12.40;99.90;;;;;;4962785;28;20059;-64
2022/06/11 00:13:35;;;;;;;10.63;6.72;;;12.70;99.90;;;;;;4961258;28;20098;-70
2022/06/11 00:16:03;;;;;;;9.07;5.22;;;12.80;99.90;;;;;;4961299;28;20043;-64
2022/06/11 00:18:31;;;;;;;10.85;5.68;;;13.00;99.90;;;;;;4961590;28;20380;-72
2022/06/11 00:20:58;;;;;;;9.02;4.20;;;13.10;99.90;;;;;;4964707;28;20085;-71
2022/06/11 00:23:26;;;;;;;5.32;3.55;;;13.20;99.90;;;;;;4962007;28;20540;-70
2022/06/11 00:25:54;;;;;;;5.50;3.60;;;13.30;99.90;;;;;;4959108;28;20109;-72
2022/06/11 00:28:21;;;;;;;3.92;2.50;;;13.50;99.90;;;;;;4962796;28;20059;-71
2022/06/11 00:30:48;;;;;;;6.43;3.95;;;13.70;99.90;;;;;;4961720;28;20047;-70
2022/06/11 00:33:16;;;;;;;6.38;4.47;;;13.90;99.90;;;;;;4961495;28;20089;-69
2022/06/11 00:35:43;;;;;;;7.15;4.95;;;14.00;99.90;;;;;;4961573;28;20038;-64
2022/06/11 00:38:11;;;;;;;5.03;2.28;;;14.10;99.90;;;;;;4960944;28;20101;-70
2022/06/11 00:40:41;;;;;;;4.22;1.75;;;14.20;98.20;;;;;;4963574;28;20035;-70
2022/06/11 00:43:09;;;;;;;2.42;1.90;;;14.30;97.50;;;;;;4959211;28;20046;-64
2022/06/11 00:46:01;;;;;;;4.95;3.00;;;14.40;98.30;;;;;;4960423;28;20138;-64
2022/06/11 00:48:41;;;;;;;4.90;2.37;;;14.60;98.20;;;;;;4959901;28;20061;-70
2022/06/11 00:51:22;;;;;;;2.30;1.77;;;14.80;97.10;;;;;;4961833;28;20106;-64
2022/06/11 00:54:05;;;;;;;3.78;2.33;;;14.80;96.60;;;;;;4963532;28;20029;-62
2022/06/11 00:56:44;;;;;;;1.85;1.25;;;15.00;95.80;;;;;;4960892;28;20759;-67
2022/06/11 00:59:21;;;;;;;2.42;1.38;;;15.10;95.50;;;;;;4959041;28;20544;-70
2022/06/11 01:01:50;;;;;;;1.50;0.90;;;15.20;95.10;;;;;;4965434;28;20476;-64
2022/06/11 01:04:39;;;;;;;2.33;1.20;;;15.30;94.90;;;;;;4962376;28;20023;-73
2022/06/11 01:07:21;;;;;;;3.38;2.25;;;15.70;93.50;;;;;;4962052;28;20468;-64
2022/06/11 01:10:17;;;;;;;4.20;2.25;;;15.80;94.00;;;;;;4964289;28;20118;-64
2022/06/11 01:13:05;;;;;;;2.42;1.40;;;15.70;93.90;;;;;;4959122;28;20101;-64
2022/06/11 01:15:47;;;;;;;3.00;1.70;;;15.90;92.90;;;;;;4958994;28;20046;-64
2022/06/11 01:18:36;;;;;;;4.60;1.40;;;15.80;92.60;;;;;;4961107;28;20787;-71
2022/06/11 01:21:06;;;;;;;3.78;2.28;;;15.80;92.80;;;;;;4964290;28;20511;-70
2022/06/11 01:23:45;;;;;;;2.63;1.20;;;15.90;92.90;;;;;;4961475;28;20533;-70
2022/06/11 01:27:02;;;;;;;4.20;1.00;;;16.00;92.00;;;;;;4961433;28;20082;-64
2022/06/11 01:29:41;;;;;;;5.70;1.38;;;16.10;92.20;;;;;;4907922;29;20045;-63
2022/06/11 01:32:24;;;;;;;2.22;1.08;;;16.20;92.50;;;;;;4908347;29;20111;-71
2022/06/11 01:35:19;;;;;;;2.17;1.30;;;16.30;91.80;;;;;;4906392;29;20052;-63
2022/06/11 01:38:19;;;;;;;1.17;0.63;;;16.40;92.00;;;;;;4908606;29;20055;-63
2022/06/11 01:40:48;;;;;;;1.10;0.70;;;16.50;91.50;;;;;;4843716;29;20491;-73
2022/06/11 01:43:19;;;;;;;3.50;2.00;;;16.60;91.50;;;;;;4851747;29;20127;-64
2022/06/11 01:45:48;;;;;;;3.03;1.23;;;16.80;91.90;;;;;;4852378;29;20153;-69
2022/06/11 01:48:19;;;;;;;2.42;1.50;;;17.00;90.80;;;;;;4850850;29;20037;-73
2022/06/11 01:51:15;;;;;;;1.58;1.00;;;17.00;90.20;;;;;;4859023;29;20597;-69
2022/06/11 01:54:29;;;;;;;1.15;0.80;;;17.10;90.30;;;;;;4832254;29;20167;-71
2022/06/11 01:57:34;;;;;;;1.10;1.00;;;17.00;90.20;;;;;;4762467;30;20054;-70
2022/06/11 02:00:19;;;;;;;1.48;0.77;;;17.00;89.40;;;;;;4773956;30;20533;-70
2022/06/11 02:03:17;;;;;;;3.10;0.98;;;16.90;90.20;;;;;;4777451;30;20031;-70
2022/06/11 02:05:59;;;;;;;2.42;0.95;;;17.10;90.50;;;;;;4778797;29;20088;-69
2022/06/11 02:08:47;;;;;;;2.00;1.10;;;17.40;89.20;;;;;;4792693;29;20856;-68
2022/06/11 02:11:32;;;;;;;2.35;1.35;;;17.40;88.00;;;;;;4790310;29;20633;-65
2022/06/11 02:14:24;;;;;;;4.60;0.73;;;17.70;87.80;;;;;;4792236;29;20054;-71
2022/06/11 02:17:05;;;;;;;2.17;1.05;;;17.60;85.20;;;;;;4811740;29;20089;-70
2022/06/11 02:19:43;;;;;;;1.38;0.77;;;17.50;88.00;;;;;;4847427;29;20046;-71
2022/06/11 02:22:32;;;;;;;2.63;0.60;;;17.50;86.10;;;;;;4847046;29;20399;-70
2022/06/11 02:25:21;;;;;;;7.65;0.70;;;17.60;82.90;;;;;;4848821;29;20121;-64
2022/06/11 02:27:51;;;;;;;7.35;0.85;;;17.50;81.00;;;;;;4847261;29;20048;-70
2022/06/11 02:30:23;;;;;;;6.28;1.52;;;17.70;83.20;;;;;;4864903;29;20556;-67
2022/06/11 02:32:51;;;;;;;3.25;0.50;;;17.80;80.90;;;;;;4925175;28;20507;-72
2022/06/11 02:35:50;;;;;;;6.60;1.60;;;17.60;78.20;;;;;;4967490;28;20502;-70
2022/06/11 02:38:21;;;;;;;1.83;0.40;;;17.50;76.60;;;;;;4955823;28;20129;-72
2022/06/11 02:40:57;;;;;;;4.88;0.30;;;17.30;77.30;;;;;;4966329;28;20407;-66
2022/06/11 02:43:25;;;;;;;0.38;0.28;;;17.40;76.90;;;;;;4965664;28;20050;-64
2022/06/11 02:45:52;;;;;;;1.45;0.50;;;17.40;75.60;;;;;;4969158;28;20542;-63
2022/06/11 02:48:20;;;;;;;4.05;1.33;;;17.60;76.20;;;;;;4965529;28;20066;-65
2022/06/11 02:50:48;;;;;;;1.77;0.98;;;17.50;74.30;;;;;;4966704;28;20022;-72
2022/06/11 02:53:16;;;;;;;1.67;0.70;;;17.60;74.10;;;;;;4965719;28;20034;-63
2022/06/11 02:55:45;;;;;;;4.35;1.40;;;17.40;74.00;;;;;;4967069;28;20133;-69
2022/06/11 02:58:13;;;;;;;7.47;2.33;;;17.30;73.90;;;;;;4966775;28;20093;-71
2022/06/11 03:00:48;;;;;;;0.57;0.30;;;17.30;74.10;;;;;;4966981;28;20027;-71
2022/06/11 03:03:15;;;;;;;2.45;0.45;;;17.30;74.70;;;;;;4964188;28;20134;-64
2022/06/11 03:05:42;;;;;;;1.92;0.60;;;17.30;74.80;;;;;;4967576;28;20030;-71
2022/06/11 03:08:11;;;;;;;6.05;1.45;;;17.40;75.80;;;;;;4976859;28;20031;-71
2022/06/11 03:10:38;;;;;;;4.43;1.33;;;17.60;74.80;;;;;;4966586;28;20762;-63
2022/06/11 03:13:06;;;;;;;3.55;0.60;;;17.70;74.10;;;;;;4962511;28;20042;-70
2022/06/11 03:15:34;;;;;;;1.38;0.50;;;17.80;73.00;;;;;;4966080;28;20038;-63
2022/06/11 03:18:02;;;;;;;1.10;0.30;;;17.60;73.90;;;;;;4964504;28;20029;-64
2022/06/11 03:20:31;;;;;;;1.38;0.63;;;17.50;73.00;;;;;;4965628;28;20049;-65
2022/06/11 03:22:59;;;;;;;0.60;0.43;;;17.50;74.10;;;;;;4965327;28;20046;-73
2022/06/11 03:25:26;;;;;;;2.90;0.32;;;17.50;72.00;;;;;;4965903;28;20031;-63
2022/06/11 03:27:54;;;;;;;0.50;0.20;;;17.50;74.10;;;;;;4965137;28;20031;-76
2022/06/11 03:30:22;;;;;;;0.45;0.30;;;17.60;72.80;;;;;;4965014;28;20498;-63
2022/06/11 03:32:50;;;;;;;0.75;0.20;;;17.50;72.20;;;;;;4965458;28;20113;-69
2022/06/11 03:35:17;;;;;;;2.72;0.60;;;17.50;73.10;;;;;;4965294;28;20034;-70
2022/06/11 03:37:44;;;;;;;1.05;0.30;;;17.60;71.40;;;;;;4965441;28;20026;-75
2022/06/11 03:40:12;;;;;;;1.40;0.20;;;17.50;71.80;;;;;;4965592;28;20357;-75
2022/06/11 03:42:40;;;;;;;3.15;0.40;;;17.50;71.60;;;;;;4965385;28;20074;-69
2022/06/11 03:45:08;;;;;;;0.93;0.30;;;17.50;71.60;;;;;;4966906;28;20133;-74
2022/06/11 03:47:38;;;;;;;0.50;0.30;;;17.50;72.60;;;;;;4966645;28;20042;-72
2022/06/11 03:50:21;;;;;;;1.13;0.70;;;17.60;70.60;;;;;;4967135;28;20044;-67
2022/06/11 03:52:48;;;;;;;2.63;0.38;;;17.50;71.00;;;;;;4960449;28;20054;-66
2022/06/11 03:55:16;;;;;;;0.68;0.40;;;17.60;71.50;;;;;;4966221;28;20031;-74
2022/06/11 03:57:44;;;;;;;1.77;0.50;;;17.40;71.10;;;;;;4965755;28;20406;-72
2022/06/11 04:01:14;;;;;;;2.90;0.50;;;17.60;72.50;;;;;;4966807;28;20023;-74
2022/06/11 04:03:05;;;;;;;0.32;0.25;;;17.60;70.30;;;;;;4964817;28;20030;-67
2022/06/11 04:05:33;;;;;;;0.82;0.50;;;17.50;69.40;;;;;;4966640;28;20037;-74
2022/06/11 04:08:00;;;;;;;2.13;0.60;;;17.60;70.50;;;;;;4964970;28;20031;-67
2022/06/11 04:10:28;;;;;;;1.60;0.70;;;17.30;69.60;;;;;;4967407;28;20085;-68
2022/06/11 04:12:56;;;;;;;2.72;0.77;;;17.20;69.60;;;;;;4964938;28;20352;-72
2022/06/11 04:15:23;;;;;;;2.17;0.88;;;17.20;68.60;;;;;;4967498;28;20779;-72
2022/06/11 04:17:50;;;;;;;0.88;0.40;;;17.30;69.20;;;;;;4966209;28;20023;-71
2022/06/11 04:20:17;;;;;;;1.42;0.60;;;17.30;68.80;;;;;;4962942;28;20416;-70
2022/06/11 04:22:45;;;;;;;2.45;0.60;;;17.50;69.00;;;;;;4966564;28;20023;-72
2022/06/11 04:25:18;;;;;;;1.75;1.38;;;17.50;68.60;;;;;;4613658;28;10000337;-69
2022/06/11 04:27:45;;;;;;;1.00;0.40;;;17.30;67.50;;;;;;4962654;28;20621;-68
2022/06/11 04:30:18;;;;;;;3.53;0.40;;;17.00;68.10;;;;;;4963560;28;20050;-72
2022/06/11 04:32:45;;;;;;;2.13;0.60;;;16.90;67.70;;;;;;4964167;28;20027;-68
2022/06/11 04:35:12;;;;;;;1.60;0.80;;;16.60;68.10;;;;;;4963817;28;20030;-71
2022/06/11 04:37:39;;;;;;;2.33;1.00;;;16.50;68.80;;;;;;4963823;28;20695;-66
2022/06/11 04:40:10;;;;;;;1.40;0.47;;;16.50;69.30;;;;;;4963445;28;20035;-66
2022/06/11 04:42:38;;;;;;;2.55;0.50;;;16.40;69.20;;;;;;4963555;28;20565;-67
2022/06/11 04:45:06;;;;;;;1.05;0.38;;;16.70;69.70;;;;;;4974914;28;20057;-66
2022/06/11 04:47:33;;;;;;;0.85;0.25;;;16.70;68.20;;;;;;4963040;28;20106;-72
2022/06/11 04:50:04;;;;;;;1.75;0.40;;;16.80;68.60;;;;;;4963238;28;20035;-65
2022/06/11 04:52:32;;;;;;;1.10;0.32;;;16.80;68.10;;;;;;4963860;28;20027;-67
2022/06/11 04:54:59;;;;;;;0.75;0.30;;;16.80;67.70;;;;;;4963362;28;20026;-65
2022/06/11 04:57:26;;;;;;;1.10;0.57;;;16.80;68.40;;;;;;4963277;28;20909;-72
2022/06/11 04:59:53;;;;;;;1.45;0.50;;;16.70;68.20;;;;;;4962323;28;20832;-66
2022/06/11 05:02:22;;;;;;;0.60;0.30;;;16.80;68.60;;;;;;4964354;28;20141;-65
2022/06/11 05:04:49;;;;;;;0.82;0.30;;;17.00;67.30;;;;;;4961311;28;20035;-73
2022/06/11 05:07:16;;;;;;;1.27;0.43;;;17.10;68.00;;;;;;4963014;28;20035;-65
2022/06/11 05:09:44;;;;;;;1.00;0.80;;;17.30;67.70;;;;;;4962672;28;20515;-69
2022/06/11 05:12:11;;;;;;;1.25;0.60;;;17.20;67.60;;;;;;4962542;28;20019;-68
2022/06/11 05:14:39;;;;;;;2.08;0.80;;;17.10;67.70;;;;;;4972883;28;20035;-64
2022/06/11 05:17:07;;;;;;;3.58;0.70;;;17.20;68.10;;;;;;4966404;28;20034;-73
2022/06/11 05:19:34;;;;;;;1.45;0.50;;;17.20;66.70;;;;;;4965610;28;20054;-68
2022/06/11 05:22:01;;;;;;;1.42;0.65;;;17.30;67.00;;;;;;4966122;28;20010;-65
2022/06/11 05:24:29;;;;;;;5.50;0.60;;;17.40;67.70;;;;;;4966213;28;20038;-74
2022/06/11 05:27:06;;;;;;;1.25;0.80;;;17.60;67.90;;;;;;4967482;28;20133;-68
2022/06/11 05:29:44;;;;;;;0.50;0.40;;;17.70;66.70;;;;;;5017217;23;20062;-68
2022/06/11 05:32:11;;;;;;;1.17;0.60;;;17.60;66.60;;;;;;5004607;28;20078;-75
2022/06/11 05:34:39;;;;;;;1.27;0.60;;;17.40;65.90;;;;;;5005288;28;20034;-75
2022/06/11 05:37:06;;;;;;;1.08;0.43;;;17.30;66.50;;;;;;5004493;28;20033;-75
2022/06/11 05:39:33;;;;;;;2.85;0.50;;;17.30;66.30;;;;;;5005518;28;20076;-66
2022/06/11 05:42:00;;;;;;;1.77;0.55;;;17.20;67.40;;;;;;5005379;28;20048;-67
2022/06/11 05:44:27;;;;;;;0.30;0.30;;;17.10;66.80;;;;;;5004103;28;20034;-77
2022/06/11 05:46:55;;;;;;;3.78;0.63;;;16.70;67.70;;;;;;5004579;28;20551;-68
2022/06/11 05:49:29;;;;;;;0.93;0.28;;;16.30;68.50;;;;;;5004600;28;20386;-68
2022/06/11 05:52:01;;;;;;;1.27;0.40;;;15.90;69.30;;;;;;5005990;28;20030;-65
2022/06/11 05:54:32;;;;;;;1.10;0.43;;;15.70;70.30;;;;;;5004737;28;20038;-68
2022/06/11 05:57:00;;;;;;;0.98;0.68;;;15.60;71.30;;;;;;5005185;28;20036;-69
2022/06/11 05:59:30;;;;;;;1.00;0.55;;;15.50;71.70;;;;;;5005610;28;20026;-65
2022/06/11 06:02:01;;;;;;;1.45;0.40;;;15.50;71.70;;;;;;5005496;28;20089;-69
2022/06/11 06:04:28;;;;;;;0.80;0.50;;;15.40;72.40;;;;;;5005055;28;20037;-67
2022/06/11 06:06:55;;;;;;;1.40;0.60;;;15.30;72.80;;;;;;5004481;28;20092;-66
2022/06/11 06:09:22;;;;;;;0.70;0.47;;;15.40;73.20;;;;;;5003828;28;20040;-67
2022/06/11 06:11:49;;;;;;;0.30;0.25;;;15.40;72.20;;;;;;5003007;28;20030;-69
2022/06/11 06:14:16;;;;;;;1.85;0.50;;;15.50;72.10;;;;;;5004749;28;20124;-69
2022/06/11 06:16:44;;;;;;;1.25;0.70;;;15.30;72.40;;;;;;5004894;28;20026;-67
2022/06/11 06:19:11;;;;;;;0.75;0.63;;;15.20;72.70;;;;;;5003670;28;20053;-73
2022/06/11 06:21:38;;;;;;;1.15;0.50;;;15.10;72.80;;;;;;5003615;28;20026;-74
2022/06/11 06:24:06;;;;;;;2.92;0.60;;;14.90;74.00;;;;;;5003901;28;20057;-68
2022/06/11 06:26:34;;;;;;;1.65;0.73;;;14.80;74.30;;;;;;5003974;28;20029;-75
2022/06/11 06:29:01;;;;;;;0.98;0.60;;;14.80;74.40;;;;;;5003648;28;20022;-67
2022/06/11 06:31:32;;;;;;;1.10;0.50;;;14.70;73.50;;;;;;5004331;28;20096;-74
2022/06/11 06:34:01;;;;;;;1.27;0.50;;;14.60;74.30;;;;;;5004466;28;20699;-74
2022/06/11 06:36:29;;;;;;;1.75;0.50;;;14.60;74.10;;;;;;5004372;28;20033;-73
2022/06/11 06:38:57;;;;;;;1.65;0.52;;;14.40;74.90;;;;;;5003930;28;20036;-66
2022/06/11 06:41:25;;;;;;;0.77;0.50;;;14.30;73.90;;;;;;4987792;28;20026;-73
2022/06/11 06:43:52;;;;;;;1.55;0.60;;;14.20;74.90;;;;;;5003506;28;20026;-66
2022/06/11 06:46:20;;;;;;;1.05;0.50;;;14.10;76.10;;;;;;5004609;28;20057;-71
2022/06/11 06:48:47;;;;;;;1.48;0.60;;;14.00;75.50;;;;;;5003950;28;20088;-70
2022/06/11 06:51:15;;;;;;;1.92;0.40;;;13.90;74.10;;;;;;5004108;28;20021;-67
2022/06/11 06:53:44;;;;;;;1.63;0.40;;;13.80;74.70;;;;;;4999753;28;20029;-65
2022/06/11 06:56:12;;;;;;;2.15;0.88;;;13.80;75.00;;;;;;5003583;28;20037;-71
2022/06/11 06:58:39;;;;;;;1.45;0.50;;;13.70;75.70;;;;;;5002781;28;20036;-72
2022/06/11 07:01:07;;;;;;;1.95;0.73;;;13.50;76.20;;;;;;5004121;28;20078;-65
2022/06/11 07:03:34;;;;;;;0.60;0.30;;;13.40;76.30;;;;;;5002728;28;20018;-66
2022/06/11 07:06:05;;;;;;;1.92;0.50;;;13.30;76.90;;;;;;5003602;28;20092;-66
2022/06/11 07:08:32;;;;;;;0.93;0.50;;;13.30;76.80;;;;;;5003877;28;20556;-65
2022/06/11 07:10:59;;;;;;;2.47;0.75;;;13.20;76.60;;;;;;5002276;28;20470;-72
2022/06/11 07:13:26;;;;;;;2.03;0.65;;;13.10;77.20;;;;;;5003607;28;20029;-66
2022/06/11 07:15:56;;;;;;;3.05;0.60;;;13.10;77.50;;;;;;5003052;28;20037;-71
2022/06/11 07:18:32;;;;;;;2.70;0.90;;;13.00;78.00;;;;;;5002934;28;20032;-68
2022/06/11 07:21:03;;;;;;;2.67;0.80;;;12.90;77.90;;;;;;5003388;28;20575;-65
2022/06/11 07:24:01;;;;;;;2.33;0.73;;;12.90;78.40;;;;;;5002241;28;20026;-68
2022/06/11 07:26:34;;;;;;;2.03;0.95;;;12.80;79.10;;;;;;4957393;28;20043;-65
2022/06/11 07:29:47;;;;;;;1.52;0.60;;;12.70;79.10;;;;;;4961571;28;20066;-65
2022/06/11 07:32:19;;;;;;;2.03;0.77;;;12.70;79.40;;;;;;4962569;28;20081;-69
2022/06/11 07:34:47;;;;;;;1.17;0.55;;;12.60;80.20;;;;;;4962662;28;20177;-64
2022/06/11 07:37:14;;;;;;;1.75;0.70;;;12.40;80.60;;;;;;4957966;28;20042;-68
2022/06/11 07:39:41;;;;;;;2.10;0.70;;;12.20;81.50;;;;;;4961393;28;20153;-68
2022/06/11 07:42:10;;;;;;;0.80;0.52;;;11.90;83.20;;;;;;4960458;28;20027;-64
2022/06/11 07:44:38;;;;;;;2.88;0.80;;;11.60;84.10;;;;;;4959129;28;20379;-70
2022/06/11 07:47:06;;;;;;;1.98;0.90;;;11.50;83.80;;;;;;4959464;28;20740;-65
2022/06/11 07:49:33;;;;;;;1.33;0.73;;;11.80;83.00;;;;;;4962782;28;20073;-66
2022/06/11 07:52:00;;;;;;;3.08;1.20;;;11.80;83.00;;;;;;4958389;28;20033;-67
2022/06/11 07:54:28;;;;;;;2.50;1.20;;;11.80;83.40;;;;;;4961219;28;21060;-69
2022/06/11 07:56:55;;;;;;;3.22;1.80;;;11.80;83.80;;;;;;4960429;28;20046;-69
2022/06/11 07:59:22;;;;;;;3.35;0.90;;;11.80;82.90;;;;;;4960346;28;20030;-67
2022/06/11 08:01:51;;;;;;;2.00;1.10;;;11.90;81.80;;;;;;4948996;28;20536;-68
2022/06/11 08:04:18;;;;;;;1.02;0.60;;;12.00;82.10;;;;;;5002176;28;20095;-64
2022/06/11 08:06:45;;;;;;;2.13;0.68;;;11.90;82.10;;;;;;5001915;28;20029;-68
2022/06/11 08:09:12;;;;;;;0.88;0.50;;;12.00;81.90;;;;;;5002975;28;20124;-65
2022/06/11 08:11:40;;;;;;;1.42;0.50;;;12.00;81.70;;;;;;5000955;28;20024;-66
2022/06/11 08:14:09;;;;;;;1.00;0.73;;;11.90;81.80;;;;;;5002198;28;20048;-74
2022/06/11 08:16:36;;;;;;;2.20;0.90;;;11.80;82.70;;;;;;5003143;28;20037;-63
2022/06/11 08:19:03;;;;;;;1.67;0.82;;;11.70;83.10;;;;;;5002409;28;20026;-73
2022/06/11 08:21:30;;;;;;;2.83;0.90;;;11.70;83.00;;;;;;5002715;28;20109;-72
2022/06/11 08:23:57;;;;;;;2.85;1.00;;;11.60;83.80;;;;;;5000400;28;20026;-67
2022/06/11 08:26:25;;;;;;;1.70;0.85;;;11.50;84.30;;;;;;4999515;28;20026;-72
2022/06/11 08:28:52;;;;;;;2.17;1.20;;;11.50;85.00;;;;;;5000329;28;20033;-64
2022/06/11 08:31:19;;;;;;;4.13;1.13;;;11.50;84.10;;;;;;4982492;28;20545;-67
2022/06/11 08:33:46;;;;;;;2.45;1.30;;;11.40;84.00;;;;;;4999832;28;20034;-73
2022/06/11 08:36:21;;;;;;;9.68;3.25;;;11.30;84.90;;;;;;4896464;28;10001259;-72
2022/06/11 08:38:48;;;;;;;1.65;1.00;;;11.20;85.30;;;;;;4997752;28;20221;-65
2022/06/11 08:41:19;;;;;;;1.90;1.00;;;11.30;85.00;;;;;;4981541;28;20034;-64
2022/06/11 08:44:09;;;;;;;1.30;1.02;;;11.30;85.00;;;;;;4997948;28;20259;-65
2022/06/11 08:46:39;;;;;;;1.98;1.00;;;11.30;84.80;;;;;;4998158;28;20120;-66
2022/06/11 08:49:28;;;;;;;2.20;0.77;;;11.30;84.60;;;;;;4996236;28;20180;-64
2022/06/11 08:52:09;;;;;;;1.23;0.98;;;11.30;84.10;;;;;;4985811;28;20029;-75
2022/06/11 08:54:39;;;;;;;3.10;0.63;;;11.30;84.80;;;;;;5000655;28;20037;-68
2022/06/11 08:57:15;;;;;;;8.27;1.77;;;11.20;84.40;;;;;;5002418;28;20022;-70
2022/06/11 09:00:07;;;;;;;3.30;0.88;;;11.30;85.10;;;;;;5000574;28;20030;-74
2022/06/11 09:02:46;;;;;;;1.63;0.90;;;11.20;84.80;;;;;;5002321;28;20029;-76
2022/06/11 09:05:38;;;;;;;1.40;0.70;;;11.30;84.50;;;;;;5001078;28;20034;-69
2022/06/11 09:08:18;;;;;;;2.55;0.50;;;11.30;84.70;;;;;;5001621;28;20084;-69
2022/06/11 09:10:53;;;;;;;2.28;0.88;;;11.30;85.00;;;;;;4985284;28;20026;-68
2022/06/11 09:13:51;;;;;;;10.15;3.08;;;11.30;84.70;;;;;;5000183;28;20555;-68
2022/06/11 09:16:34;;;;;;;4.07;1.20;;;11.20;85.40;;;;;;5001577;28;20033;-73
2022/06/11 09:19:20;;;;;;;2.53;0.77;;;11.20;85.20;;;;;;5001790;28;20029;-71
2022/06/11 09:21:59;;;;;;;3.38;0.88;;;11.10;85.60;;;;;;5002514;28;20029;-72
2022/06/11 09:24:56;;;;;;;1.27;0.73;;;11.10;85.90;;;;;;5000909;28;20034;-67
2022/06/11 09:27:37;;;;;;;5.95;1.20;;;11.10;86.30;;;;;;5001604;28;20041;-64
2022/06/11 09:30:24;;;;;;;2.88;1.05;;;11.10;85.90;;;;;;5001957;28;20049;-67
2022/06/11 09:33:09;;;;;;;8.32;1.10;;;11.10;86.20;;;;;;5000654;28;20490;-68
2022/06/11 09:35:46;;;;;;;3.75;1.40;;;11.10;86.60;;;;;;5001804;28;20413;-64
2022/06/11 09:38:38;;;;;;;1.67;0.90;;;11.10;86.30;;;;;;5000512;28;20026;-67
2022/06/11 09:41:11;;;;;;;3.65;1.30;;;11.00;86.70;;;;;;4961232;28;20034;-68
2022/06/11 09:43:45;;;;;;;2.30;0.98;;;11.00;87.10;;;;;;4960040;28;20134;-70
2022/06/11 09:46:36;;;;;;;2.35;0.80;;;11.00;86.70;;;;;;4958675;28;20051;-67
2022/06/11 09:49:24;;;;;;;4.32;1.08;;;11.10;86.70;;;;;;4959043;28;20454;-72
2022/06/11 09:52:16;;;;;;;4.65;0.75;;;11.00;86.80;;;;;;4959921;28;20047;-65
2022/06/11 09:54:53;;;;;;;2.95;1.30;;;11.00;86.90;;;;;;4957176;28;20483;-66
2022/06/11 09:57:50;;;;;;;2.83;0.85;;;11.00;86.90;;;;;;4958997;28;20030;-68
2022/06/11 10:00:26;;;;;;;4.10;1.17;;;11.00;87.30;;;;;;4958485;28;20428;-68
2022/06/11 10:03:02;;;;;;;3.28;1.45;;;11.00;87.30;;;;;;4959101;28;20089;-71
2022/06/11 10:05:42;;;;;;;2.13;0.85;;;10.90;86.70;;;;;;4959050;28;20038;-65
2022/06/11 10:08:44;;;;;;;1.75;0.73;;;10.90;86.60;;;;;;4958433;28;20067;-67
2022/06/11 10:11:25;;;;;;;2.70;1.35;;;11.00;86.50;;;;;;4957367;28;20061;-67
2022/06/11 10:14:28;;;;;;;5.93;1.10;;;11.00;86.80;;;;;;4957355;28;20053;-68
2022/06/11 10:17:19;;;;;;;4.90;1.70;;;11.00;86.60;;;;;;4957477;28;20042;-68
2022/06/11 10:20:10;;;;;;;6.85;1.17;;;10.90;86.80;;;;;;4997236;28;20077;-64
2022/06/11 10:22:40;;;;;;;12.45;1.13;;;10.90;87.10;;;;;;5002563;28;20034;-64
2022/06/11 10:25:19;;;;;;;4.20;1.23;;;10.90;87.00;;;;;;5002266;28;20038;-63
2022/06/11 10:28:12;;;;;;;5.40;1.27;;;10.80;87.40;;;;;;5002103;28;20139;-63
2022/06/11 10:31:17;;;;;;;4.68;0.90;;;10.80;87.20;;;;;;4971720;28;20038;-70
2022/06/11 10:33:54;;;;;;;10.77;1.40;;;10.80;87.10;;;;;;4922094;29;20042;-66
2022/06/11 10:36:44;;;;;;;3.28;0.93;;;10.80;87.70;;;;;;4922685;29;20055;-66
2022/06/11 10:39:33;;;;;;;3.40;1.38;;;10.80;87.80;;;;;;4921677;29;20023;-64
2022/06/11 10:42:05;;;;;;;3.33;0.98;;;10.70;88.40;;;;;;4921863;29;20950;-64
2022/06/11 10:44:49;;;;;;;6.00;1.67;;;10.60;88.50;;;;;;4905579;29;20902;-66
2022/06/11 10:47:35;;;;;;;4.55;1.20;;;10.50;88.90;;;;;;4923473;29;20709;-64
2022/06/11 10:50:07;;;;;;;2.63;1.08;;;10.50;89.20;;;;;;4919200;29;20094;-67
2022/06/11 10:52:45;;;;;;;2.83;1.52;;;10.40;89.70;;;;;;4922724;29;20124;-66
2022/06/11 10:55:26;;;;;;;4.40;1.20;;;10.30;90.10;;;;;;4906266;29;20043;-67
2022/06/11 10:57:54;;;;;;;5.30;1.40;;;10.30;90.20;;;;;;4922636;29;21571;-66
2022/06/11 11:00:36;;;;;;;3.58;1.05;;;10.30;90.20;;;;;;4921183;29;20066;-68
2022/06/11 11:03:13;;;;;;;4.53;1.13;;;10.20;90.30;;;;;;4921300;29;20040;-69
2022/06/11 11:05:59;;;;;;;5.28;1.15;;;10.30;90.30;;;;;;4922096;29;20143;-65
2022/06/11 11:08:26;;;;;;;3.42;1.27;;;10.30;90.40;;;;;;4921418;29;20164;-66
2022/06/11 11:10:55;;;;;;;3.85;1.35;;;10.30;90.20;;;;;;4970555;28;20050;-65
2022/06/11 11:13:39;;;;;;;6.63;1.30;;;10.20;90.60;;;;;;4981609;28;20677;-75
2022/06/11 11:16:21;;;;;;;4.80;1.10;;;10.20;90.50;;;;;;4983194;28;20058;-67
2022/06/11 11:19:03;;;;;;;5.22;1.20;;;10.20;90.70;;;;;;4981895;28;20027;-63
2022/06/11 11:21:30;;;;;;;3.25;1.35;;;10.10;90.80;;;;;;4982243;28;20057;-72
2022/06/11 11:24:14;;;;;;;3.83;1.63;;;10.10;91.00;;;;;;4981287;28;20112;-63
2022/06/11 11:26:47;;;;;;;2.85;1.30;;;9.90;91.30;;;;;;4981979;28;20030;-73
2022/06/11 11:29:24;;;;;;;3.53;1.30;;;9.80;91.60;;;;;;4983609;28;20041;-68
2022/06/11 11:32:04;;;;;;;3.38;0.90;;;9.70;91.60;;;;;;5001065;28;20438;-67
2022/06/11 11:34:48;;;;;;;3.60;1.30;;;9.50;92.30;;;;;;5000937;28;20116;-63
2022/06/11 11:37:15;;;;;;;4.35;1.70;;;9.10;93.10;;;;;;5000751;28;20435;-63
2022/06/11 11:39:51;;;;;;;4.95;1.50;;;8.90;93.70;;;;;;5000917;28;20026;-67
2022/06/11 11:42:25;;;;;;;3.80;1.70;;;8.70;94.40;;;;;;5000800;28;20030;-73
2022/06/11 11:44:57;;;;;;;5.45;2.15;;;8.50;94.70;;;;;;5000669;28;20496;-67
2022/06/11 11:47:38;;;;;;;3.65;1.73;;;8.40;95.50;;;;;;5000713;28;20631;-73
2022/06/11 11:50:18;;;;;;;4.65;1.75;;;8.30;95.60;;;;;;4999767;28;20068;-65
2022/06/11 11:52:55;;;;;;;5.25;1.60;;;8.10;96.10;;;;;;5000094;28;20029;-63
2022/06/11 11:55:28;;;;;;;3.20;1.60;;;8.00;96.50;;;;;;4999986;28;20033;-66
2022/06/11 11:58:30;;;;;;;3.58;1.48;;;7.90;97.20;;;;;;5001536;28;20068;-65
2022/06/11 12:01:13;;;;;;;5.43;1.80;;;7.80;97.70;;;;;;4993447;28;20649;-70
2022/06/11 12:03:52;;;;;;;3.90;1.65;;;7.60;98.30;;;;;;5001470;28;20022;-68
2022/06/11 12:06:35;;;;;;;4.93;1.48;;;7.50;98.80;;;;;;4983380;28;21263;-68
2022/06/11 12:09:15;;;;;;;2.97;1.65;;;7.50;99.50;;;;;;5001406;28;20033;-65
2022/06/11 12:11:42;;;;;;;4.93;2.20;;;7.50;99.80;;;;;;4999209;28;20148;-67
2022/06/11 12:14:16;;;;;;;5.50;2.45;;;7.70;99.40;;;;;;5000832;28;20841;-73
2022/06/11 12:16:54;;;;;;;3.95;2.20;;;7.60;99.60;;;;;;5000664;28;20033;-66
2022/06/11 12:19:21;;;;;;;4.40;2.45;;;7.60;99.20;;;;;;5001189;28;20862;-69
2022/06/11 12:22:16;;;;;;;8.02;2.60;;;7.50;99.60;;;;;;5000021;28;20587;-65
2022/06/11 12:24:48;;;;;;;6.70;2.42;;;7.60;99.70;;;;;;4999555;28;20034;-67
2022/06/11 12:27:34;;;;;;;5.95;2.45;;;7.60;99.50;;;;;;5000208;28;20030;-68
2022/06/11 12:30:05;;;;;;;6.32;2.40;;;7.70;99.70;;;;;;4999312;28;20049;-68
2022/06/11 12:32:34;;;;;;;5.10;2.40;;;7.50;99.90;;;;;;4999919;28;20122;-69
2022/06/11 12:35:02;;;;;;;4.95;2.03;;;7.40;99.90;;;;;;5000479;28;20141;-65
2022/06/11 12:37:37;;;;;;;6.85;2.17;;;7.20;99.90;;;;;;4999411;28;20030;-67
2022/06/11 12:40:20;;;;;;;3.63;2.22;;;7.10;99.90;;;;;;4998991;28;20470;-67
2022/06/11 12:43:33;;;;;;;6.43;2.22;;;7.00;99.90;;;;;;4996093;28;20084;-64
2022/06/11 12:46:28;;;;;;;5.30;2.10;;;7.00;99.90;;;;;;4958865;28;20035;-65
2022/06/11 12:49:24;;;;;;;5.57;2.28;;;7.10;99.90;;;;;;4958136;28;20082;-66
2022/06/11 12:52:00;;;;;;;6.93;2.00;;;7.20;99.90;;;;;;4960216;28;20054;-73
2022/06/11 12:55:05;;;;;;;4.30;2.03;;;7.30;99.90;;;;;;4942767;28;20511;-73
2022/06/11 12:57:58;;;;;;;5.45;2.45;;;7.30;99.90;;;;;;4957265;28;20060;-66
2022/06/11 13:00:36;;;;;;;9.00;2.85;;;7.30;99.90;;;;;;4960710;28;20062;-68
2022/06/11 13:03:23;;;;;;;7.75;2.85;;;7.30;99.90;;;;;;4959197;28;20090;-69
2022/06/11 13:05:59;;;;;;;6.20;2.70;;;7.40;99.90;;;;;;4960830;28;20546;-73
2022/06/11 13:08:29;;;;;;;3.80;2.45;;;7.30;99.90;;;;;;4961279;28;20081;-67
2022/06/11 13:11:22;;;;;;;6.53;2.67;;;7.20;99.90;;;;;;4960965;28;20054;-69
2022/06/11 13:14:30;;;;;;;4.90;2.33;;;7.20;99.90;;;;;;4960018;28;20027;-68
2022/06/11 13:17:19;;;;;;;8.75;3.53;;;7.10;99.90;;;;;;4961959;28;20069;-73
2022/06/11 13:19:57;;;;;;;9.70;4.63;;;7.20;99.90;;;;;;4963287;28;20031;-68
2022/06/11 13:23:06;;;;;;;7.18;4.00;;;7.10;99.90;;;;;;4968767;28;20053;-73
2022/06/11 13:25:41;;;;;;;9.30;4.38;;;6.90;99.90;;;;;;5003002;28;20084;-68
2022/06/11 13:28:20;;;;;;;10.85;4.25;;;6.80;99.90;;;;;;5001697;28;20487;-66
2022/06/11 13:31:04;;;;;;;9.23;4.10;;;6.80;99.90;;;;;;4984679;28;20046;-67